Terminal Aerodrome Forecast
Issued by NWS Newport/Morehead City, NC

Home | Current Version | Previous Version | Text Only | Print | Product List | Glossary On
Versions: 1 2 3 4 5 6 7 8 9 10 11 12 13 14 15
748
FTUS42 KMHX 142119 AAB
TAFEWN
TAF AMD
KEWN 142119Z 1421/1518 01010KT P6SM SCT025 BKN040
      TEMPO 1421/1423 BKN025
     FM150000 02007KT P6SM SCT200=

USA.gov is the U.S. government's official web portal to all federal, state and local government web resources and services.